Urie, Wyoming
Current Conditions -  °F | °C
As of 5:15 PM on Saturday 25 Oct 2014 (Local Time) from KFBR Reporting Station
Clear Clear  
Wind Chill: 73°   Ceiling: Unl
Heat Index: 73°   Visibility: NA
Dew Point: 24°   Wind: 15mph
Humidity: 16%   Direction: 220°SW
Pressure: 30.1"   Gusts: 20mph
Location:  41.3257°N, 110.285°W
Report Text: KFBR 252315Z AUTO 22013G17KT CLR 23/M04 A3010 RMK AO2 T02251043 PWINO
Loading
Personal Weather Stations






























Interactive Weather Map
Tropical Storm Tracking
New forecast layout! Learn more

10-Day Weather Forecast

Advertisements
Track Severe Weather on mobile